Time;durP1;ratioP1;P1;durP2;ratioP2;P2;SDS_P1;SDS_P2;PMS_P1;PMS_P2;Temp;Humidity;BMP_temperature;BMP_pressure;BME280_temperature;BME280_humidity;BME280_pressure;Samples;Min_cycle;Max_cycle;Signal;HPM_P1;HPM_P2
2023/03/06 00:02:13;;;;;;;7.28;1.42;;;3.60;99.90;;;;;;5127236;27;20063;-69
2023/03/06 00:04:39;;;;;;;4.15;1.10;;;3.50;99.90;;;;;;5093326;28;20127;-69
2023/03/06 00:07:04;;;;;;;3.35;1.25;;;3.50;99.90;;;;;;5094495;28;20619;-69
2023/03/06 00:09:30;;;;;;;2.70;1.00;;;3.50;99.90;;;;;;5129518;27;20044;-69
2023/03/06 00:11:55;;;;;;;5.15;1.30;;;3.50;99.90;;;;;;5100149;28;20491;-69
2023/03/06 00:14:21;;;;;;;5.07;1.50;;;3.40;99.90;;;;;;5058318;28;20036;-69
2023/03/06 00:16:46;;;;;;;6.90;2.05;;;3.40;99.90;;;;;;5129267;27;20068;-69
2023/03/06 00:19:12;;;;;;;6.25;1.20;;;3.40;99.90;;;;;;5129523;27;20036;-68
2023/03/06 00:21:40;;;;;;;3.22;1.10;;;3.40;99.90;;;;;;5110940;28;20047;-69
2023/03/06 00:24:05;;;;;;;3.85;1.30;;;3.40;99.90;;;;;;5129472;27;20510;-69
2023/03/06 00:26:32;;;;;;;6.50;1.55;;;3.30;99.90;;;;;;5129291;27;20043;-68
2023/03/06 00:28:58;;;;;;;6.45;1.27;;;3.40;99.90;;;;;;5077415;28;20040;-69
2023/03/06 00:31:23;;;;;;;2.17;1.20;;;3.30;99.90;;;;;;5111219;28;20047;-69
2023/03/06 00:33:49;;;;;;;6.25;1.20;;;3.30;99.90;;;;;;5128917;27;20127;-69
2023/03/06 00:36:15;;;;;;;6.75;1.52;;;3.30;99.90;;;;;;5126894;27;20476;-69
2023/03/06 00:38:40;;;;;;;4.78;1.75;;;3.20;99.90;;;;;;5077613;28;20036;-68
2023/03/06 00:41:10;;;;;;;4.35;1.17;;;3.20;99.90;;;;;;5095520;27;20041;-69
2023/03/06 00:43:36;;;;;;;3.75;1.25;;;3.20;99.90;;;;;;5091305;28;20044;-68
2023/03/06 00:46:02;;;;;;;4.97;1.20;;;3.20;99.90;;;;;;5074611;28;20047;-68
2023/03/06 00:48:28;;;;;;;4.85;1.15;;;3.20;99.90;;;;;;5108146;27;20404;-68
2023/03/06 00:50:54;;;;;;;3.00;1.23;;;3.20;99.90;;;;;;5094536;27;20043;-68
2023/03/06 00:53:19;;;;;;;5.65;1.52;;;3.20;99.90;;;;;;5108021;28;20038;-69
2023/03/06 00:55:46;;;;;;;6.72;1.38;;;3.20;99.90;;;;;;5074203;28;20401;-69
2023/03/06 00:58:11;;;;;;;5.30;1.23;;;3.20;99.90;;;;;;5097141;28;20373;-68
2023/03/06 01:00:37;;;;;;;3.90;1.40;;;3.30;99.90;;;;;;5079518;28;20038;-69
2023/03/06 01:03:03;;;;;;;4.93;1.08;;;3.40;99.90;;;;;;5128365;27;20040;-69
2023/03/06 01:05:29;;;;;;;5.25;1.40;;;3.30;99.90;;;;;;5093367;28;20036;-68
2023/03/06 01:07:55;;;;;;;5.53;1.30;;;3.40;99.90;;;;;;5076197;28;20043;-68
2023/03/06 01:10:21;;;;;;;4.03;1.40;;;3.40;99.90;;;;;;5076563;28;20032;-69
2023/03/06 01:12:46;;;;;;;5.03;1.50;;;3.40;99.90;;;;;;5110875;28;20514;-69
2023/03/06 01:15:12;;;;;;;3.88;1.27;;;3.40;99.90;;;;;;5111050;28;20141;-69
2023/03/06 01:17:38;;;;;;;5.25;1.20;;;3.40;99.90;;;;;;5110113;28;20043;-69
2023/03/06 01:20:04;;;;;;;4.03;1.27;;;3.40;99.90;;;;;;5128004;27;20040;-69
2023/03/06 01:22:30;;;;;;;4.82;1.30;;;3.40;99.90;;;;;;5110223;27;20040;-69
2023/03/06 01:24:56;;;;;;;3.80;1.13;;;3.40;99.90;;;;;;5094089;28;20205;-69
2023/03/06 01:27:21;;;;;;;4.65;1.25;;;3.40;99.90;;;;;;5110144;28;20036;-69
2023/03/06 01:29:47;;;;;;;4.20;1.38;;;3.40;99.90;;;;;;5127835;27;20076;-69
2023/03/06 01:32:12;;;;;;;5.93;1.20;;;3.40;99.90;;;;;;5109468;28;20519;-69
2023/03/06 01:34:38;;;;;;;6.00;1.40;;;3.40;99.90;;;;;;5075927;28;20043;-69
2023/03/06 01:37:03;;;;;;;4.65;1.45;;;3.40;99.90;;;;;;5090620;28;20515;-69
2023/03/06 01:39:30;;;;;;;3.15;1.10;;;3.30;99.90;;;;;;5101703;28;20029;-69
2023/03/06 01:41:56;;;;;;;5.18;1.40;;;3.30;99.90;;;;;;5059465;28;20036;-69
2023/03/06 01:44:22;;;;;;;4.78;1.52;;;3.30;99.90;;;;;;5090409;28;20393;-69
2023/03/06 01:46:47;;;;;;;5.75;1.65;;;3.30;99.90;;;;;;5072726;28;20037;-69
2023/03/06 01:49:23;;;;;;;5.47;1.75;;;3.30;99.90;;;;;;5072831;28;20033;-69
2023/03/06 01:52:12;;;;;;;2.17;0.95;;;3.30;99.90;;;;;;5090088;28;20082;-70
2023/03/06 01:54:44;;;;;;;2.75;1.02;;;3.30;99.90;;;;;;5073118;28;20041;-69
2023/03/06 01:57:19;;;;;;;5.85;1.40;;;3.40;99.90;;;;;;5055897;28;20079;-69
2023/03/06 01:59:48;;;;;;;5.45;1.33;;;3.30;99.90;;;;;;5072954;28;20044;-69
2023/03/06 02:02:14;;;;;;;5.20;1.60;;;3.30;99.90;;;;;;5087697;28;20036;-69
2023/03/06 02:04:41;;;;;;;4.38;1.10;;;3.30;99.90;;;;;;5091953;28;20048;-69
2023/03/06 02:07:07;;;;;;;5.00;1.40;;;3.30;99.90;;;;;;5088950;28;20040;-69
2023/03/06 02:09:34;;;;;;;5.50;1.10;;;3.30;99.90;;;;;;5072766;28;20044;-69
2023/03/06 02:12:08;;;;;;;4.45;1.25;;;3.30;99.90;;;;;;5085339;28;20050;-69
2023/03/06 02:14:35;;;;;;;4.95;1.40;;;3.30;99.90;;;;;;5093224;28;20046;-69
2023/03/06 02:17:01;;;;;;;4.18;1.40;;;3.30;99.90;;;;;;5109683;27;20036;-69
2023/03/06 02:20:04;;;;;;;7.20;1.50;;;3.30;99.90;;;;;;5116799;27;20480;-68
2023/03/06 02:22:48;;;;;;;3.47;1.20;;;3.30;99.90;;;;;;5055744;28;20037;-69
2023/03/06 02:25:39;;;;;;;4.22;1.40;;;3.30;99.90;;;;;;5072463;28;20082;-69
2023/03/06 02:28:07;;;;;;;4.03;1.33;;;3.40;99.90;;;;;;5091266;28;20043;-68
2023/03/06 02:30:34;;;;;;;6.35;1.50;;;3.40;99.90;;;;;;5075988;28;20506;-68
2023/03/06 02:33:00;;;;;;;5.57;1.73;;;3.40;99.90;;;;;;5091782;28;20047;-68
2023/03/06 02:35:31;;;;;;;4.65;1.55;;;3.30;99.90;;;;;;5074773;28;20047;-68
2023/03/06 02:38:01;;;;;;;4.57;1.40;;;3.20;99.90;;;;;;5075021;28;20043;-68
2023/03/06 02:40:27;;;;;;;6.05;1.52;;;3.30;99.90;;;;;;5109475;28;20514;-68
2023/03/06 02:42:55;;;;;;;4.43;1.70;;;3.20;99.90;;;;;;5108570;28;20027;-69
2023/03/06 02:45:32;;;;;;;3.47;1.58;;;3.20;99.90;;;;;;5092716;28;20044;-68
2023/03/06 02:47:58;;;;;;;3.38;1.30;;;3.20;99.90;;;;;;5108673;27;20089;-68
2023/03/06 02:50:23;;;;;;;6.15;1.42;;;3.10;99.90;;;;;;5126384;27;20032;-69
2023/03/06 02:52:49;;;;;;;3.78;1.42;;;3.10;99.90;;;;;;5108383;28;20044;-68
2023/03/06 02:55:15;;;;;;;2.85;1.10;;;3.10;99.90;;;;;;5109209;28;20067;-68
2023/03/06 02:57:40;;;;;;;3.75;1.20;;;3.00;99.90;;;;;;5125104;27;20419;-69
2023/03/06 03:00:07;;;;;;;1.70;1.00;;;3.00;99.90;;;;;;5108522;28;20471;-68
2023/03/06 03:02:32;;;;;;;2.33;1.10;;;3.00;99.90;;;;;;5101971;28;20032;-68
2023/03/06 03:04:58;;;;;;;1.73;0.82;;;3.00;99.90;;;;;;5058776;28;20460;-68
2023/03/06 03:07:23;;;;;;;2.05;1.00;;;2.90;99.90;;;;;;5086057;28;20040;-68
2023/03/06 03:09:49;;;;;;;1.88;0.95;;;2.90;99.90;;;;;;5070951;28;20479;-68
2023/03/06 03:12:14;;;;;;;1.30;0.80;;;2.90;99.90;;;;;;5070748;28;20119;-68
2023/03/06 03:14:40;;;;;;;2.80;0.80;;;2.90;99.90;;;;;;5087654;28;20036;-68
2023/03/06 03:17:05;;;;;;;1.20;0.80;;;2.80;99.90;;;;;;5090614;28;20032;-68
2023/03/06 03:19:31;;;;;;;3.47;0.80;;;2.80;99.90;;;;;;5125724;28;20104;-68
2023/03/06 03:21:57;;;;;;;1.80;0.93;;;2.80;99.90;;;;;;5091420;28;20032;-68
2023/03/06 03:24:24;;;;;;;1.10;0.90;;;2.80;99.90;;;;;;5085924;28;20490;-68
2023/03/06 03:26:49;;;;;;;2.28;1.15;;;2.80;99.90;;;;;;5072336;28;20037;-68
2023/03/06 03:29:15;;;;;;;1.58;0.90;;;2.80;99.90;;;;;;5071712;28;20037;-68
2023/03/06 03:31:40;;;;;;;2.50;1.20;;;2.70;99.90;;;;;;5088676;28;20033;-68
2023/03/06 03:34:07;;;;;;;2.08;1.13;;;2.70;99.90;;;;;;5087854;28;20126;-67
2023/03/06 03:36:33;;;;;;;2.47;1.30;;;2.70;99.90;;;;;;5089644;28;20392;-67
2023/03/06 03:38:59;;;;;;;2.60;1.30;;;2.70;99.90;;;;;;5092098;28;20047;-67
2023/03/06 03:41:24;;;;;;;2.97;1.13;;;2.70;99.90;;;;;;5108779;28;20028;-68
2023/03/06 03:43:50;;;;;;;2.40;1.27;;;2.80;99.90;;;;;;5087112;28;20068;-68
2023/03/06 03:46:15;;;;;;;2.65;1.23;;;2.80;99.90;;;;;;5091197;28;20041;-67
2023/03/06 03:48:41;;;;;;;2.58;1.00;;;2.70;99.90;;;;;;5091970;28;20042;-67
2023/03/06 03:51:11;;;;;;;2.17;1.10;;;2.70;99.90;;;;;;5091705;28;20043;-67
2023/03/06 03:53:37;;;;;;;2.13;1.05;;;2.70;99.90;;;;;;5058950;28;20036;-67
2023/03/06 03:56:04;;;;;;;2.33;1.20;;;2.70;99.90;;;;;;5090641;28;20131;-67
2023/03/06 03:58:30;;;;;;;2.65;1.17;;;2.80;99.90;;;;;;5108632;28;20040;-67
2023/03/06 04:00:55;;;;;;;3.50;1.10;;;2.70;99.90;;;;;;5108485;28;20093;-68
2023/03/06 04:03:22;;;;;;;3.03;1.13;;;2.60;99.90;;;;;;5111689;28;20097;-67
2023/03/06 04:05:47;;;;;;;2.22;1.08;;;2.50;99.90;;;;;;5083875;28;20048;-67
2023/03/06 04:08:13;;;;;;;1.48;1.08;;;2.60;99.90;;;;;;5112652;28;20042;-67
2023/03/06 04:10:39;;;;;;;1.88;0.93;;;2.60;99.90;;;;;;5090544;28;20113;-68
2023/03/06 04:13:04;;;;;;;2.90;1.05;;;2.50;99.90;;;;;;5094316;28;20105;-67
2023/03/06 04:15:30;;;;;;;2.03;1.40;;;2.50;99.90;;;;;;5128980;27;20032;-67
2023/03/06 04:17:56;;;;;;;2.08;1.10;;;2.60;99.90;;;;;;5128862;27;20047;-67
2023/03/06 04:20:22;;;;;;;2.55;1.10;;;2.60;99.90;;;;;;5095403;28;20637;-67
2023/03/06 04:22:48;;;;;;;3.30;1.20;;;2.70;99.90;;;;;;5094245;28;20040;-67
2023/03/06 04:25:14;;;;;;;2.20;1.20;;;2.60;99.90;;;;;;5128858;27;20040;-68
2023/03/06 04:27:39;;;;;;;3.50;1.30;;;2.60;99.90;;;;;;5111963;28;20032;-68
2023/03/06 04:30:06;;;;;;;4.03;1.50;;;2.60;99.90;;;;;;5128930;27;20040;-68
2023/03/06 04:32:32;;;;;;;3.08;1.30;;;2.60;99.90;;;;;;5087877;28;20580;-67
2023/03/06 04:34:57;;;;;;;2.88;1.27;;;2.60;99.90;;;;;;5091228;28;20127;-67
2023/03/06 04:37:24;;;;;;;3.30;1.30;;;2.60;99.90;;;;;;5094291;28;20115;-68
2023/03/06 04:39:50;;;;;;;2.72;1.40;;;2.60;99.90;;;;;;5078142;28;20433;-67
2023/03/06 04:42:16;;;;;;;3.05;1.42;;;2.60;99.90;;;;;;5111448;28;20044;-67
2023/03/06 04:44:42;;;;;;;3.08;1.27;;;2.60;99.90;;;;;;5094566;28;20081;-67
2023/03/06 04:47:09;;;;;;;3.00;1.60;;;2.60;99.90;;;;;;5093797;28;20511;-68
2023/03/06 04:49:34;;;;;;;3.85;1.90;;;2.60;99.90;;;;;;5094562;28;20036;-67
2023/03/06 04:52:00;;;;;;;3.38;1.50;;;2.60;99.90;;;;;;5126186;27;20389;-68
2023/03/06 04:54:25;;;;;;;3.13;1.65;;;2.60;99.90;;;;;;5074145;28;20043;-68
2023/03/06 04:56:51;;;;;;;3.47;1.77;;;2.60;99.90;;;;;;5105019;28;20044;-67
2023/03/06 04:59:16;;;;;;;3.28;1.50;;;2.60;99.90;;;;;;5077764;28;20043;-68
2023/03/06 05:01:42;;;;;;;2.88;1.50;;;2.60;99.90;;;;;;5111280;28;20071;-67
2023/03/06 05:04:07;;;;;;;3.30;1.40;;;2.60;99.90;;;;;;5126395;27;20051;-68
2023/03/06 05:06:33;;;;;;;2.85;1.40;;;2.60;99.90;;;;;;5093283;28;20126;-67
2023/03/06 05:08:59;;;;;;;2.78;1.50;;;2.60;99.90;;;;;;5111433;28;20506;-68
2023/03/06 05:11:24;;;;;;;2.92;1.33;;;2.60;99.90;;;;;;5094126;28;20488;-67
2023/03/06 05:13:50;;;;;;;3.53;1.50;;;2.60;99.90;;;;;;5124977;27;20044;-68
2023/03/06 05:16:16;;;;;;;3.05;1.50;;;2.60;99.90;;;;;;5075334;28;20036;-68
2023/03/06 05:18:42;;;;;;;4.47;1.35;;;2.50;99.90;;;;;;5073772;28;20075;-68
2023/03/06 05:21:07;;;;;;;3.28;1.35;;;2.50;99.90;;;;;;5073959;28;20072;-68
2023/03/06 05:23:35;;;;;;;3.88;1.70;;;2.50;99.90;;;;;;5087147;28;20093;-68
2023/03/06 05:26:05;;;;;;;3.10;1.33;;;2.50;99.90;;;;;;5109870;28;20042;-68
2023/03/06 05:28:31;;;;;;;2.30;1.30;;;2.50;99.90;;;;;;5110789;28;20047;-68
2023/03/06 05:30:56;;;;;;;3.28;1.50;;;2.50;99.90;;;;;;5111008;28;20036;-68
2023/03/06 05:33:22;;;;;;;3.50;1.70;;;2.50;99.90;;;;;;5109760;28;20043;-68
2023/03/06 05:35:48;;;;;;;3.00;1.48;;;2.60;99.90;;;;;;5123862;27;20036;-68
2023/03/06 05:38:15;;;;;;;3.42;1.55;;;2.50;99.90;;;;;;5090741;28;20032;-67
2023/03/06 05:40:42;;;;;;;2.95;1.38;;;2.50;99.90;;;;;;5059603;28;20048;-68
2023/03/06 05:43:09;;;;;;;2.63;1.50;;;2.40;99.90;;;;;;5107269;28;20508;-68
2023/03/06 05:45:35;;;;;;;2.95;1.48;;;2.40;99.90;;;;;;5072991;28;20097;-68
2023/03/06 05:48:01;;;;;;;3.75;1.50;;;2.30;99.90;;;;;;5072191;28;20047;-68
2023/03/06 05:50:26;;;;;;;4.40;1.85;;;2.20;99.90;;;;;;5090899;28;20036;-68
2023/03/06 05:52:52;;;;;;;3.15;1.48;;;2.20;99.90;;;;;;5090775;28;20040;-68
2023/03/06 05:55:19;;;;;;;2.88;1.73;;;2.30;99.90;;;;;;5125953;27;20050;-69
2023/03/06 05:57:46;;;;;;;5.35;1.70;;;2.30;99.90;;;;;;5080217;28;20048;-69
2023/03/06 06:00:13;;;;;;;3.17;1.70;;;2.30;99.90;;;;;;5092185;28;20075;-69
2023/03/06 06:02:39;;;;;;;2.40;1.40;;;2.30;99.90;;;;;;5075495;28;20032;-68
2023/03/06 06:05:05;;;;;;;3.83;1.63;;;2.40;99.90;;;;;;5075188;28;20071;-68
2023/03/06 06:07:31;;;;;;;2.45;1.27;;;2.40;99.90;;;;;;5082569;28;20161;-68
2023/03/06 06:09:57;;;;;;;3.13;1.60;;;2.40;99.90;;;;;;5101702;28;20472;-68
2023/03/06 06:12:23;;;;;;;3.72;1.40;;;2.40;99.90;;;;;;5083945;28;20040;-68
2023/03/06 06:14:48;;;;;;;2.58;1.35;;;2.40;99.90;;;;;;5124191;27;20066;-68
2023/03/06 06:17:15;;;;;;;3.67;1.50;;;2.40;99.90;;;;;;5110105;28;20036;-68
2023/03/06 06:19:41;;;;;;;3.13;1.40;;;2.40;99.90;;;;;;5076708;28;20464;-68
2023/03/06 06:22:07;;;;;;;3.05;1.40;;;2.40;99.90;;;;;;5102208;28;20042;-68
2023/03/06 06:24:33;;;;;;;2.85;1.63;;;2.30;99.90;;;;;;5101504;28;20032;-68
2023/03/06 06:26:59;;;;;;;2.83;1.50;;;2.30;99.90;;;;;;5090316;28;20039;-68
2023/03/06 06:29:26;;;;;;;3.80;1.60;;;2.30;99.90;;;;;;5092727;28;20032;-68
2023/03/06 06:31:52;;;;;;;4.13;2.08;;;2.20;99.90;;;;;;5091052;28;20036;-68
2023/03/06 06:34:18;;;;;;;2.67;1.42;;;2.20;99.90;;;;;;5090367;28;20071;-68
2023/03/06 06:36:45;;;;;;;2.97;1.50;;;2.20;99.90;;;;;;5081647;28;20040;-68
2023/03/06 06:39:13;;;;;;;3.63;1.40;;;2.20;99.90;;;;;;5091651;28;20507;-68
2023/03/06 06:41:39;;;;;;;3.28;1.60;;;2.10;99.90;;;;;;5089668;28;20056;-68
2023/03/06 06:44:06;;;;;;;2.92;1.52;;;2.20;99.90;;;;;;5106979;28;20566;-68
2023/03/06 06:46:33;;;;;;;3.65;1.80;;;2.20;99.90;;;;;;5084772;28;20135;-68
2023/03/06 06:49:01;;;;;;;3.17;1.48;;;2.10;99.90;;;;;;5074744;28;20050;-68
2023/03/06 06:51:29;;;;;;;3.17;1.40;;;2.10;99.90;;;;;;5090905;28;20040;-68
2023/03/06 06:53:55;;;;;;;10.27;3.90;;;2.20;99.90;;;;;;5091906;28;20044;-68
2023/03/06 06:56:20;;;;;;;8.85;3.22;;;2.20;99.90;;;;;;5074783;28;20052;-68
2023/03/06 06:58:46;;;;;;;4.07;1.73;;;2.20;99.90;;;;;;5091507;28;20119;-68
2023/03/06 07:01:12;;;;;;;4.05;1.70;;;2.30;99.90;;;;;;5071759;28;20039;-68
2023/03/06 07:03:39;;;;;;;3.72;1.50;;;2.30;99.90;;;;;;5062072;28;20040;-68
2023/03/06 07:06:05;;;;;;;2.53;1.20;;;2.20;99.90;;;;;;5094080;28;20502;-68
2023/03/06 07:08:31;;;;;;;3.80;1.67;;;2.30;99.90;;;;;;5108916;28;20040;-68
2023/03/06 07:10:57;;;;;;;3.75;1.60;;;2.30;99.90;;;;;;5090248;28;20048;-68
2023/03/06 07:13:23;;;;;;;3.58;1.67;;;2.30;99.90;;;;;;5075392;28;20032;-68
2023/03/06 07:15:49;;;;;;;3.15;1.52;;;2.30;99.90;;;;;;5091188;28;20487;-68
2023/03/06 07:18:14;;;;;;;2.88;1.45;;;2.30;99.90;;;;;;5108776;27;20043;-68
2023/03/06 07:20:40;;;;;;;4.22;1.58;;;2.30;99.90;;;;;;5112344;28;20036;-68
2023/03/06 07:23:12;;;;;;;3.45;1.48;;;2.30;99.90;;;;;;5112986;28;20130;-68
2023/03/06 07:25:38;;;;;;;3.53;1.67;;;2.30;99.90;;;;;;5085136;28;20130;-68
2023/03/06 07:28:04;;;;;;;3.63;1.48;;;2.30;99.90;;;;;;5115120;28;20047;-68
2023/03/06 07:30:29;;;;;;;2.90;1.40;;;2.30;99.90;;;;;;5085259;28;20043;-68
2023/03/06 07:32:57;;;;;;;3.42;1.48;;;2.30;99.90;;;;;;5069461;28;20073;-68
2023/03/06 07:35:24;;;;;;;4.03;1.80;;;2.30;99.90;;;;;;5083664;28;20482;-68
2023/03/06 07:37:50;;;;;;;3.50;1.30;;;2.30;99.90;;;;;;5122161;28;20043;-68
2023/03/06 07:40:16;;;;;;;3.38;1.35;;;2.30;99.90;;;;;;5101722;28;20040;-68
2023/03/06 07:42:42;;;;;;;4.55;2.00;;;2.30;99.90;;;;;;5109682;28;20101;-68
2023/03/06 07:45:08;;;;;;;3.80;1.80;;;2.30;99.90;;;;;;5091840;28;20130;-68
2023/03/06 07:47:34;;;;;;;3.05;1.45;;;2.40;99.90;;;;;;5077804;28;20082;-68
2023/03/06 07:50:02;;;;;;;6.15;1.70;;;2.40;99.90;;;;;;5091720;28;20036;-68
2023/03/06 07:52:28;;;;;;;4.38;1.60;;;2.50;99.90;;;;;;5074631;28;20048;-68
2023/03/06 07:54:54;;;;;;;6.50;1.83;;;2.50;99.90;;;;;;5076393;28;20039;-68
2023/03/06 07:57:19;;;;;;;5.25;1.88;;;2.50;99.90;;;;;;5092440;28;20048;-68
2023/03/06 07:59:45;;;;;;;4.35;1.70;;;2.50;99.90;;;;;;5077527;28;20062;-68
2023/03/06 08:02:11;;;;;;;4.18;1.63;;;2.60;99.90;;;;;;5077644;28;20130;-69
2023/03/06 08:04:37;;;;;;;5.82;1.80;;;2.70;99.90;;;;;;5077787;28;20040;-68
2023/03/06 08:07:03;;;;;;;6.60;1.95;;;2.70;99.90;;;;;;5110617;28;20058;-68
2023/03/06 08:09:29;;;;;;;2.80;1.30;;;2.80;99.90;;;;;;5077098;28;20036;-68
2023/03/06 08:11:55;;;;;;;5.07;1.52;;;2.80;99.90;;;;;;5094914;28;20043;-68
2023/03/06 08:14:21;;;;;;;5.72;1.73;;;2.70;99.90;;;;;;5092951;28;20057;-68
2023/03/06 08:16:48;;;;;;;4.25;1.55;;;2.70;99.90;;;;;;5129374;27;20065;-69
2023/03/06 08:19:14;;;;;;;4.72;1.52;;;2.70;99.90;;;;;;5094036;28;20040;-68
2023/03/06 08:21:40;;;;;;;3.65;1.52;;;2.70;99.90;;;;;;5077761;28;20476;-69
2023/03/06 08:24:06;;;;;;;4.82;1.40;;;2.70;99.90;;;;;;5089565;28;20032;-68
2023/03/06 08:26:32;;;;;;;3.67;1.35;;;2.80;99.90;;;;;;5092440;28;20544;-68
2023/03/06 08:29:00;;;;;;;5.13;1.40;;;2.80;99.90;;;;;;5076532;28;20082;-68
2023/03/06 08:31:30;;;;;;;5.00;1.55;;;2.90;99.90;;;;;;5073977;28;20051;-68
2023/03/06 08:33:58;;;;;;;4.32;1.50;;;3.00;99.90;;;;;;5091544;28;20093;-68
2023/03/06 08:36:24;;;;;;;2.90;1.30;;;3.10;99.90;;;;;;5089596;28;20035;-68
2023/03/06 08:38:50;;;;;;;3.58;1.40;;;3.30;99.90;;;;;;5077110;28;20035;-68
2023/03/06 08:41:15;;;;;;;4.15;1.40;;;3.40;99.90;;;;;;5085007;28;20113;-68
2023/03/06 08:43:41;;;;;;;2.70;1.50;;;3.50;99.90;;;;;;5104853;28;20036;-68
2023/03/06 08:46:08;;;;;;;3.58;1.40;;;3.50;99.90;;;;;;5091140;28;20047;-68
2023/03/06 08:48:34;;;;;;;3.42;1.20;;;3.50;99.90;;;;;;5075904;28;20488;-68
2023/03/06 08:50:59;;;;;;;5.55;1.20;;;3.70;99.90;;;;;;5127181;27;20051;-68
2023/03/06 08:53:25;;;;;;;3.03;1.00;;;3.70;99.90;;;;;;5074553;28;20028;-68
2023/03/06 08:55:51;;;;;;;4.47;1.15;;;3.70;99.90;;;;;;5073739;28;20052;-68
2023/03/06 08:58:16;;;;;;;3.00;0.95;;;3.80;99.90;;;;;;5097356;27;20041;-68
2023/03/06 09:00:42;;;;;;;4.25;1.30;;;3.80;99.90;;;;;;5064469;28;20039;-68
2023/03/06 09:03:08;;;;;;;2.00;0.90;;;3.90;99.90;;;;;;5079574;28;20060;-68
2023/03/06 09:05:34;;;;;;;3.78;0.93;;;4.10;99.90;;;;;;5081971;28;20525;-69
2023/03/06 09:07:59;;;;;;;1.90;0.98;;;4.10;99.90;;;;;;5126001;27;20039;-68
2023/03/06 09:10:26;;;;;;;5.07;1.20;;;4.30;99.90;;;;;;5095642;28;20035;-68
2023/03/06 09:12:53;;;;;;;1.58;0.75;;;4.40;99.90;;;;;;5090953;28;20044;-69
2023/03/06 09:15:19;;;;;;;3.85;1.40;;;4.50;99.90;;;;;;5086278;28;20036;-69
2023/03/06 09:17:46;;;;;;;4.18;1.00;;;4.60;99.90;;;;;;5093991;27;20068;-69
2023/03/06 09:20:12;;;;;;;3.20;0.90;;;4.60;99.90;;;;;;5059368;28;20444;-69
2023/03/06 09:22:41;;;;;;;1.90;0.90;;;4.50;99.90;;;;;;5086936;28;20126;-69
2023/03/06 09:25:07;;;;;;;3.20;1.00;;;4.60;99.90;;;;;;5126883;27;20040;-69
2023/03/06 09:27:32;;;;;;;2.92;1.23;;;4.70;99.90;;;;;;5127054;27;20054;-68
2023/03/06 09:29:58;;;;;;;3.15;1.20;;;4.90;99.90;;;;;;5091855;28;20040;-68
2023/03/06 09:32:23;;;;;;;4.07;1.00;;;4.90;99.90;;;;;;5091924;28;20473;-69
2023/03/06 09:34:49;;;;;;;3.38;1.00;;;4.80;99.90;;;;;;5087244;28;20028;-69
2023/03/06 09:37:15;;;;;;;3.80;1.02;;;4.90;99.90;;;;;;5096197;28;20119;-69
2023/03/06 09:39:41;;;;;;;2.90;1.02;;;5.00;99.90;;;;;;5077039;28;20166;-69
2023/03/06 09:42:13;;;;;;;3.25;1.13;;;5.10;99.90;;;;;;5071229;28;20126;-69
2023/03/06 09:44:41;;;;;;;1.67;0.80;;;5.10;99.90;;;;;;5088593;28;20032;-69
2023/03/06 09:47:12;;;;;;;1.58;0.80;;;5.00;99.90;;;;;;5100167;28;20032;-69
2023/03/06 09:50:15;;;;;;;2.35;0.70;;;4.80;99.90;;;;;;5122086;27;20078;-70
2023/03/06 09:53:03;;;;;;;3.13;0.90;;;5.00;99.90;;;;;;5071877;28;20048;-69
2023/03/06 09:55:36;;;;;;;5.88;1.10;;;5.10;99.90;;;;;;5088128;28;20557;-70
2023/03/06 09:58:16;;;;;;;3.50;0.70;;;5.10;99.90;;;;;;5084102;28;20042;-70
2023/03/06 10:01:16;;;;;;;2.60;0.90;;;5.10;99.90;;;;;;5077798;28;20035;-69
2023/03/06 10:04:18;;;;;;;2.75;1.05;;;5.20;99.90;;;;;;5084633;28;20069;-69
2023/03/06 10:06:55;;;;;;;4.45;1.10;;;5.20;99.90;;;;;;5040248;28;20184;-69
2023/03/06 10:09:46;;;;;;;3.17;0.90;;;5.30;99.90;;;;;;5074565;28;20040;-70
2023/03/06 10:12:24;;;;;;;2.55;0.90;;;5.40;99.90;;;;;;5101837;28;20447;-69
2023/03/06 10:15:04;;;;;;;2.83;0.70;;;5.40;99.90;;;;;;5091821;27;20468;-69
2023/03/06 10:17:41;;;;;;;2.08;0.80;;;5.60;99.90;;;;;;5073798;28;20109;-69
2023/03/06 10:20:25;;;;;;;2.33;0.88;;;5.70;99.90;;;;;;5074096;28;21425;-69
2023/03/06 10:23:23;;;;;;;4.78;1.00;;;5.80;99.90;;;;;;5094921;28;20036;-69
2023/03/06 10:26:09;;;;;;;2.38;0.63;;;5.90;99.90;;;;;;5084367;28;20044;-69
2023/03/06 10:28:41;;;;;;;4.35;0.65;;;5.80;99.90;;;;;;5076539;28;20044;-70
2023/03/06 10:31:25;;;;;;;3.90;0.63;;;5.80;99.90;;;;;;5079444;28;20041;-69
2023/03/06 10:33:56;;;;;;;2.55;0.70;;;6.00;99.90;;;;;;5097547;28;20581;-69
2023/03/06 10:36:28;;;;;;;3.67;0.50;;;6.00;99.90;;;;;;5077763;28;20492;-69
2023/03/06 10:38:56;;;;;;;3.50;0.50;;;5.80;99.90;;;;;;5086911;28;20040;-70
2023/03/06 10:41:26;;;;;;;1.85;0.40;;;6.00;99.90;;;;;;5089822;28;20499;-69
2023/03/06 10:44:04;;;;;;;1.92;0.77;;;6.00;99.90;;;;;;5059973;28;20053;-69
2023/03/06 10:46:33;;;;;;;2.63;0.60;;;6.30;99.90;;;;;;5073173;28;20493;-69
2023/03/06 10:49:01;;;;;;;3.50;0.52;;;6.40;99.90;;;;;;5090503;28;20051;-69
2023/03/06 10:51:28;;;;;;;2.80;0.60;;;6.40;99.90;;;;;;5092373;28;20571;-69
2023/03/06 10:54:18;;;;;;;1.45;0.50;;;6.40;99.90;;;;;;5109366;28;20035;-69
2023/03/06 10:56:45;;;;;;;3.55;0.63;;;6.50;99.90;;;;;;5106895;27;20101;-69
2023/03/06 10:59:21;;;;;;;1.15;0.50;;;6.60;99.90;;;;;;5090503;28;20040;-69
2023/03/06 11:01:53;;;;;;;3.25;0.50;;;6.60;99.90;;;;;;5079849;28;20032;-69
2023/03/06 11:04:24;;;;;;;2.50;0.70;;;6.70;99.90;;;;;;5075123;28;20040;-70
2023/03/06 11:07:14;;;;;;;2.13;0.52;;;6.60;99.90;;;;;;5088316;28;20032;-70
2023/03/06 11:10:00;;;;;;;1.63;0.43;;;6.50;99.90;;;;;;5091855;28;20052;-69
2023/03/06 11:12:29;;;;;;;3.67;0.50;;;6.60;99.90;;;;;;5064863;28;20055;-69
2023/03/06 11:15:13;;;;;;;3.30;0.68;;;6.60;99.90;;;;;;5090869;28;20035;-69
2023/03/06 11:18:00;;;;;;;1.50;0.50;;;6.70;99.90;;;;;;5072610;28;20036;-69
2023/03/06 11:20:33;;;;;;;3.20;0.70;;;6.40;99.90;;;;;;5072287;28;20126;-69
2023/03/06 11:23:13;;;;;;;2.40;0.60;;;6.70;99.90;;;;;;5068739;28;20043;-69
2023/03/06 11:25:47;;;;;;;1.08;0.55;;;6.60;99.90;;;;;;5098197;28;20036;-69
2023/03/06 11:28:23;;;;;;;1.63;0.70;;;6.70;99.90;;;;;;5097862;28;20495;-69
2023/03/06 11:30:55;;;;;;;2.45;0.52;;;6.40;99.90;;;;;;5110217;28;20050;-69
2023/03/06 11:33:39;;;;;;;2.50;0.50;;;6.30;99.90;;;;;;5096398;28;20044;-69
2023/03/06 11:36:23;;;;;;;4.70;0.70;;;6.30;99.90;;;;;;5117228;27;20078;-69
2023/03/06 11:38:51;;;;;;;1.85;0.52;;;6.20;99.90;;;;;;5080591;28;20039;-69
2023/03/06 11:41:46;;;;;;;1.67;0.80;;;6.10;99.90;;;;;;5092144;28;20044;-69
2023/03/06 11:44:26;;;;;;;3.85;0.80;;;6.20;99.90;;;;;;5095016;28;20048;-68
2023/03/06 11:47:20;;;;;;;3.55;0.73;;;6.40;99.90;;;;;;5097224;28;20567;-69
2023/03/06 11:49:59;;;;;;;2.40;0.60;;;6.40;99.90;;;;;;5113747;27;22228;-69
2023/03/06 11:52:39;;;;;;;1.58;0.45;;;6.50;99.90;;;;;;5077417;28;20032;-69
2023/03/06 11:55:07;;;;;;;4.63;0.75;;;6.50;99.90;;;;;;5086399;28;20094;-70
2023/03/06 11:57:52;;;;;;;3.50;0.82;;;6.50;99.90;;;;;;5094505;28;20054;-69
2023/03/06 12:00:28;;;;;;;3.33;0.70;;;6.40;99.90;;;;;;5128515;27;20129;-69
2023/03/06 12:03:31;;;;;;;4.28;0.90;;;6.30;99.90;;;;;;5095274;28;20089;-69
2023/03/06 12:06:08;;;;;;;3.03;0.68;;;6.20;99.90;;;;;;5097959;28;20040;-69
2023/03/06 12:08:55;;;;;;;3.85;0.93;;;6.30;99.90;;;;;;5095201;28;20040;-69
2023/03/06 12:11:47;;;;;;;2.95;0.75;;;6.30;99.90;;;;;;5113862;28;20058;-69
2023/03/06 12:14:31;;;;;;;3.15;1.42;;;6.30;99.90;;;;;;5080938;28;20400;-69
2023/03/06 12:17:04;;;;;;;2.17;0.57;;;6.40;99.90;;;;;;5073331;28;20044;-69
2023/03/06 12:20:05;;;;;;;4.43;0.90;;;6.50;99.90;;;;;;5094262;28;20051;-69
2023/03/06 12:22:52;;;;;;;2.50;0.77;;;6.40;99.90;;;;;;5123420;27;20043;-69
2023/03/06 12:25:27;;;;;;;3.58;0.70;;;6.40;99.90;;;;;;5092265;28;20051;-69
2023/03/06 12:28:11;;;;;;;3.53;0.80;;;6.50;99.90;;;;;;5097570;28;20047;-69
2023/03/06 12:31:14;;;;;;;3.75;0.88;;;6.40;99.90;;;;;;5086647;28;20032;-69
2023/03/06 12:33:59;;;;;;;;;;;6.50;99.90;;;;;;5076091;28;20094;-69
2023/03/06 12:36:36;;;;;;;1.60;0.73;;;6.60;99.90;;;;;;5075141;28;19916;-69
2023/03/06 12:39:17;;;;;;;2.35;0.55;;;6.40;99.90;;;;;;5127858;27;20035;-69
2023/03/06 12:42:17;;;;;;;2.20;1.05;;;6.40;99.90;;;;;;5081606;28;21485;-69
2023/03/06 12:45:28;;;;;;;2.42;0.65;;;6.60;99.90;;;;;;5020622;28;20036;-69
2023/03/06 12:47:55;;;;;;;1.67;0.70;;;6.60;99.90;;;;;;5060733;28;20147;-69
2023/03/06 12:50:27;;;;;;;2.30;0.60;;;6.50;99.90;;;;;;5109539;28;20040;-69
2023/03/06 12:52:55;;;;;;;1.30;0.60;;;6.50;99.90;;;;;;5091872;28;20044;-69
2023/03/06 12:55:22;;;;;;;1.90;0.57;;;6.50;99.90;;;;;;5076432;28;20143;-69
2023/03/06 12:57:48;;;;;;;0.90;0.60;;;6.60;99.90;;;;;;5103416;28;20051;-69
2023/03/06 13:00:36;;;;;;;3.17;0.90;;;6.80;99.90;;;;;;5084265;28;20044;-69
2023/03/06 13:03:16;;;;;;;3.22;0.88;;;6.70;99.90;;;;;;5073825;28;20071;-69
2023/03/06 13:06:10;;;;;;;2.55;0.80;;;6.70;99.90;;;;;;5059735;28;20103;-69
2023/03/06 13:08:51;;;;;;;1.92;0.77;;;6.60;99.90;;;;;;5056882;28;20165;-69
2023/03/06 13:11:38;;;;;;;3.83;1.00;;;6.70;99.90;;;;;;5090437;28;20040;-69
2023/03/06 13:14:29;;;;;;;1.77;0.77;;;6.60;99.90;;;;;;5075923;28;20044;-69